Aeroporto :
LOGIN :

Iscrizione | Disclaimer

   EN    FR    IT 

 










Sommario :    VFR   VFR Marginale   IFR   IFR Intensivo   IFR Molto Intensivo
Visibilità : 
Base nubi : 
>= 8 km
>= 3000ft
5 / 8 km
1000 / 3000 ft
1500m / 5 km
500 / 1000 ft
800 / 1500m
200 / 500 ft
< 800m
< 200 ft
Simboli :   Temporali  Nebbia  Neve Forte  Precipitazioni Forti  Vento > 20 kt
SIGMETs :   Varie  Temporali  Ghiacco  Turbolenza  Onda orograficha  Ceneri Vulcaniche






- Altitudine del aeroporto : 3 ft
- Codice IATA : DHR


EHKD - Den Helder De Kooy

ULTIMO METAR :
  • 251002Z AUTO 17020KT 9999 FEW019 BKN024 BKN028 13/08 Q0991 WHT TEMPO 17020G30KT SCT016 BKN022

METARs OBSOLETI :
  • 250955Z AUTO 17020KT 140V200 9999 SCT019 BKN023 OVC028 12/08 Q0991 WHT TEMPO 17020G30KT SCT016 BKN022
  • 250933Z AUTO 17016KT 140V200 9999 BKN020 BKN023 BKN040 12/08 Q0991 WHT NOSIG
  • 250855Z AUTO 17013KT 120V200 9999 SCT018 BKN021 OVC080 12/08 Q0991 WHT TEMPO FEW012 SCT018CB
  • 250834Z AUTO 17017KT 140V200 9999 SCT018 BKN021 BKN069 11/08 Q0991 WHT TEMPO FEW012 SCT018CB
  • 250826Z AUTO 17017KT 140V200 9999 FEW015CB SCT058 BKN069 11/08 Q0991 BLU TEMPO FEW012 SCT018CB
  • 250755Z AUTO 19017KT 160V220 9999 -RA SCT015CB BKN046 BKN052 10/08 Q0991 RERA REDZ WHT TEMPO 4000 SHRA FEW012 SCT018CB BKN030
  • 250734Z AUTO 18014KT 160V220 9999 -RADZ SCT015CB SCT045 BKN064 10/08 Q0991 WHT TEMPO 4000 SHRA FEW012 SCT018CB BKN030
  • 250725Z AUTO 18014KT 9999 -RA FEW012 FEW015CB SCT042 BKN046 10/08 Q0991 RERA REDZ BLU TEMPO 4000 SHRA FEW012 SCT018CB BKN030

TAF TAF EHKD
Valido dal 25 a 09 ore il 25 a 21 ore UTC


250753Z 2509/2521 17020G30KT 9999 SCT015 BKN050
TEMPO 2509/2513 18025G35KT 4000 SHRA FEW012 SCT015CB BKN020
PROB30
TEMPO 2509/2513 3000 TSRA SCT012 SCT015CB
PROB40
TEMPO 2513/2517 FEW015CB BKN025
BECMG 2516/2518 11015G20KT



MetMap, La meteo Aeronautica in un colpo d'occhio ! - Copyright ORBIFLY Dicembre 2007 - Disclaimer

ORBIFLY MET'MAP TEAM :

Programmazione e sviluppo : Alexandra Zaïnal
Concezione : Baudouin d'Aumeries
Aiuto per la programmazione : Marc-Olivier Méhu
Supporto tecnico e logistico : Manuel Goepfert
Aiuto per la traduzione : Arnaldo La Scala

Contatto : metmap@orbifly.com




FONTI E CREDITI :

   NOAA